Time;durP1;ratioP1;P1;durP2;ratioP2;P2;SDS_P1;SDS_P2;PMS_P1;PMS_P2;Temp;Humidity;BMP_temperature;BMP_pressure;BME280_temperature;BME280_humidity;BME280_pressure;Samples;Min_cycle;Max_cycle;Signal;HPM_P1;HPM_P2
2023/09/18 00:00:52;;;;;;;5.93;2.07;;;;;;;21.99;71.97;99419.91;5051659;28;20040;-80
2023/09/18 00:03:20;;;;;;;8.32;2.30;;;;;;;22.02;71.71;99425.06;5049173;28;20100;-80
2023/09/18 00:05:47;;;;;;;10.48;2.90;;;;;;;21.99;71.92;99430.63;5049033;28;20025;-80
2023/09/18 00:08:13;;;;;;;8.90;2.70;;;;;;;21.92;71.94;99434.69;5060523;28;20111;-80
2023/09/18 00:10:38;;;;;;;9.60;2.63;;;;;;;21.88;71.96;99442.03;5059821;28;20116;-80
2023/09/18 00:13:04;;;;;;;10.00;2.43;;;;;;;21.87;72.15;99452.88;5049116;28;20063;-80
2023/09/18 00:15:30;;;;;;;9.63;2.30;;;;;;;21.85;72.10;99462.84;5049270;28;20441;-80
2023/09/18 00:17:56;;;;;;;9.37;2.50;;;;;;;21.86;72.43;99461.88;5049290;28;20033;-80
2023/09/18 00:20:26;;;;;;;8.80;2.47;;;;;;;21.85;72.52;99454.81;5049283;28;20539;-80
2023/09/18 00:22:55;;;;;;;9.63;2.07;;;;;;;21.85;72.37;99450.28;5049178;28;20037;-80
2023/09/18 00:25:21;;;;;;;8.43;2.55;;;;;;;21.81;72.55;99451.44;5048923;28;20176;-80
2023/09/18 00:27:46;;;;;;;9.82;2.95;;;;;;;21.68;72.92;99455.84;5048880;28;20243;-80
2023/09/18 00:30:12;;;;;;;11.47;2.83;;;;;;;21.62;73.13;99455.25;5048875;28;20017;-81
2023/09/18 00:32:37;;;;;;;8.43;2.40;;;;;;;21.67;73.27;99472.91;5048927;28;20017;-80
2023/09/18 00:35:03;;;;;;;8.68;2.65;;;;;;;21.68;73.03;99467.44;5049460;28;20413;-79
2023/09/18 00:37:29;;;;;;;8.10;2.90;;;;;;;21.61;73.47;99469.63;5048834;28;20469;-81
2023/09/18 00:39:54;;;;;;;10.02;2.90;;;;;;;21.54;73.58;99468.28;5049311;28;20017;-83
2023/09/18 00:42:22;;;;;;;9.70;2.77;;;;;;;21.52;73.73;99464.84;5049083;28;20036;-80
2023/09/18 00:44:47;;;;;;;9.68;3.00;;;;;;;21.54;73.36;99464.75;5048889;28;20021;-83
2023/09/18 00:47:15;;;;;;;11.40;2.57;;;;;;;21.57;73.26;99461.88;5048646;28;20033;-80
2023/09/18 00:49:43;;;;;;;6.88;2.50;;;;;;;21.54;73.08;99468.28;5063135;28;20480;-80
2023/09/18 00:52:10;;;;;;;7.20;2.47;;;;;;;21.50;73.50;99467.63;5072552;28;20032;-80
2023/09/18 00:54:38;;;;;;;8.55;2.70;;;;;;;21.49;73.48;99465.88;5072511;28;20094;-80
2023/09/18 00:57:05;;;;;;;9.00;2.40;;;;;;;21.54;73.39;99473.66;5059362;28;20035;-79
2023/09/18 00:59:31;;;;;;;7.32;2.40;;;;;;;21.58;73.21;99468.94;5052285;28;20020;-80
2023/09/18 01:01:56;;;;;;;10.70;2.97;;;;;;;21.57;73.27;99468.09;5052108;28;20040;-80
2023/09/18 01:04:22;;;;;;;10.43;2.30;;;;;;;21.54;73.33;99467.41;5062676;28;20056;-80
2023/09/18 01:06:49;;;;;;;8.75;2.38;;;;;;;21.53;73.40;99466.56;5072120;28;20020;-80
2023/09/18 01:09:17;;;;;;;8.30;2.70;;;;;;;21.54;73.05;99457.56;5072375;28;20052;-80
2023/09/18 01:12:02;;;;;;;10.27;2.60;;;;;;;21.48;73.27;99453.47;5054119;28;20052;-80
2023/09/18 01:14:33;;;;;;;9.63;2.40;;;;;;;21.49;73.29;99465.03;5052065;28;20033;-80
2023/09/18 01:17:01;;;;;;;10.00;2.30;;;;;;;21.44;73.30;99468.00;5052030;28;20031;-80
2023/09/18 01:19:46;;;;;;;6.32;1.90;;;;;;;21.46;73.12;99463.41;5051957;28;20025;-80
2023/09/18 01:22:16;;;;;;;11.32;2.78;;;;;;;21.44;73.40;99459.97;5052090;28;20025;-80
2023/09/18 01:24:43;;;;;;;8.98;2.63;;;;;;;21.44;73.31;99459.09;5033844;28;20087;-80
2023/09/18 01:27:14;;;;;;;10.30;2.20;;;;;;;21.44;73.37;99457.28;5051650;28;20031;-80
2023/09/18 01:29:40;;;;;;;8.65;2.63;;;;;;;21.44;73.48;99457.28;5052075;28;20024;-80
2023/09/18 01:32:06;;;;;;;8.13;2.55;;;;;;;21.40;73.50;99457.56;5051758;28;20049;-80
2023/09/18 01:34:39;;;;;;;7.97;2.90;;;;;;;21.40;73.46;99455.75;5052013;28;20041;-82
2023/09/18 01:37:08;;;;;;;8.95;2.10;;;;;;;21.36;73.17;99459.59;5051915;28;20021;-80
2023/09/18 01:39:34;;;;;;;9.43;2.33;;;;;;;21.35;73.18;99457.88;5051395;28;20468;-81
2023/09/18 01:42:02;;;;;;;11.18;2.58;;;;;;;21.36;73.17;99464.94;5051678;28;20031;-80
2023/09/18 01:44:28;;;;;;;11.48;2.60;;;;;;;21.34;73.14;99466.84;5051564;28;20394;-81
2023/09/18 01:46:57;;;;;;;8.30;2.37;;;;;;;21.32;73.15;99466.94;5051237;28;20025;-80
2023/09/18 01:49:29;;;;;;;9.68;2.33;;;;;;;21.30;73.06;99458.16;5061060;28;20024;-80
2023/09/18 01:51:55;;;;;;;7.07;2.63;;;;;;;21.19;73.12;99450.78;5070723;28;20043;-81
2023/09/18 01:54:20;;;;;;;8.27;2.30;;;;;;;21.04;73.30;99443.69;5051470;28;20121;-80
2023/09/18 01:56:46;;;;;;;14.27;2.30;;;;;;;21.00;73.41;99445.69;5064318;28;20025;-79
2023/09/18 01:59:11;;;;;;;9.53;2.20;;;;;;;21.01;73.41;99441.19;5071264;28;20035;-80
2023/09/18 02:01:37;;;;;;;8.33;2.50;;;;;;;21.00;73.25;99436.78;5070563;28;20109;-80
2023/09/18 02:04:04;;;;;;;8.02;2.55;;;;;;;20.99;73.49;99446.66;5070970;28;20427;-80
2023/09/18 02:06:29;;;;;;;8.73;2.35;;;;;;;20.97;73.28;99445.00;5071225;28;20025;-80
2023/09/18 02:08:55;;;;;;;9.93;2.07;;;;;;;20.94;73.07;99438.91;5071237;28;20113;-81
2023/09/18 02:11:20;;;;;;;9.57;2.40;;;;;;;20.92;73.33;99440.81;5055936;28;20043;-80
2023/09/18 02:13:46;;;;;;;12.60;2.63;;;;;;;20.92;73.36;99430.09;5033309;28;20035;-80
2023/09/18 02:16:11;;;;;;;7.90;2.10;;;;;;;20.89;72.91;99435.66;5051141;28;20032;-80
2023/09/18 02:18:37;;;;;;;7.97;2.10;;;;;;;20.80;73.25;99430.81;5051456;28;20029;-80
2023/09/18 02:21:02;;;;;;;6.90;2.30;;;;;;;20.73;73.40;99430.28;5032896;28;20025;-80
2023/09/18 02:23:28;;;;;;;8.27;2.45;;;;;;;20.70;73.34;99435.84;5050928;28;20192;-81
2023/09/18 02:25:57;;;;;;;8.93;2.30;;;;;;;20.68;73.10;99437.75;5050665;28;20370;-81
2023/09/18 02:28:23;;;;;;;9.35;2.38;;;;;;;20.63;73.27;99434.50;5050849;28;20032;-80
2023/09/18 02:30:48;;;;;;;9.73;2.43;;;;;;;20.57;73.54;99438.38;5050783;28;20045;-80
2023/09/18 02:33:14;;;;;;;8.10;2.03;;;;;;;20.54;73.40;99433.22;5050569;28;20056;-81
2023/09/18 02:35:40;;;;;;;9.98;2.60;;;;;;;20.48;73.78;99429.09;5050726;28;20025;-81
2023/09/18 02:38:05;;;;;;;7.95;2.10;;;;;;;20.43;73.83;99422.31;5050797;28;20029;-80
2023/09/18 02:40:31;;;;;;;10.40;2.57;;;;;;;20.36;73.93;99440.50;5050563;28;20115;-80
2023/09/18 02:42:56;;;;;;;7.23;2.20;;;;;;;20.33;74.15;99425.50;5050419;28;20032;-80
2023/09/18 02:45:21;;;;;;;8.33;2.30;;;;;;;20.33;73.93;99422.81;5050527;28;20064;-81
2023/09/18 02:47:47;;;;;;;6.97;2.00;;;;;;;20.35;73.89;99426.25;5050286;28;20505;-80
2023/09/18 02:50:12;;;;;;;9.23;2.40;;;;;;;20.37;73.41;99429.72;5068724;28;20267;-80
2023/09/18 02:52:38;;;;;;;12.83;2.63;;;;;;;20.39;73.95;99426.13;5070418;28;20472;-80
2023/09/18 02:55:03;;;;;;;9.80;2.17;;;;;;;20.40;73.44;99428.69;5070477;28;20135;-80
2023/09/18 02:57:29;;;;;;;9.40;2.42;;;;;;;20.42;73.48;99431.28;5048700;28;20062;-80
2023/09/18 02:59:54;;;;;;;11.03;2.40;;;;;;;20.35;73.35;99428.94;5070175;28;20036;-80
2023/09/18 03:02:19;;;;;;;11.43;2.40;;;;;;;20.32;73.43;99439.81;5069953;28;20223;-81
2023/09/18 03:04:45;;;;;;;10.10;2.37;;;;;;;20.30;73.66;99443.56;5069755;28;20063;-81
2023/09/18 03:07:12;;;;;;;11.80;2.40;;;;;;;20.30;73.60;99439.03;5070047;28;20451;-80
2023/09/18 03:09:38;;;;;;;12.75;2.30;;;;;;;20.27;73.81;99439.22;5069040;28;20021;-81
2023/09/18 03:12:03;;;;;;;8.27;2.20;;;;;;;20.28;73.43;99443.63;5049388;28;20036;-80
2023/09/18 03:14:29;;;;;;;9.60;2.60;;;;;;;20.28;73.98;99445.44;5050060;28;20025;-81
2023/09/18 03:16:54;;;;;;;12.70;2.30;;;;;;;20.27;73.84;99444.56;5049979;28;20036;-84
2023/09/18 03:19:22;;;;;;;9.13;2.27;;;;;;;20.26;73.61;99436.66;5049861;28;20056;-81
2023/09/18 03:21:47;;;;;;;9.32;2.28;;;;;;;20.21;73.98;99431.56;5049903;28;20777;-81
2023/09/18 03:24:12;;;;;;;7.97;2.40;;;;;;;20.18;73.95;99429.09;5049998;28;20039;-81
2023/09/18 03:26:38;;;;;;;10.70;2.53;;;;;;;20.15;73.93;99431.94;5040157;28;20191;-81
2023/09/18 03:29:03;;;;;;;8.97;2.57;;;;;;;20.13;73.84;99442.69;5049752;28;20511;-80
2023/09/18 03:31:29;;;;;;;11.70;2.80;;;;;;;20.14;74.00;99443.56;5049544;28;20049;-81
2023/09/18 03:33:55;;;;;;;7.87;2.70;;;;;;;20.13;74.11;99448.03;5049457;28;20104;-81
2023/09/18 03:36:23;;;;;;;11.35;3.08;;;;;;;20.06;73.73;99441.34;5049750;28;20025;-80
2023/09/18 03:38:49;;;;;;;13.23;2.72;;;;;;;19.98;73.88;99428.41;5031511;28;20039;-80
2023/09/18 03:41:14;;;;;;;10.53;2.47;;;;;;;19.96;74.23;99424.09;5049466;28;20024;-80
2023/09/18 03:43:40;;;;;;;10.17;2.60;;;;;;;19.98;74.10;99407.03;5049306;28;20056;-81
2023/09/18 03:46:06;;;;;;;10.03;3.00;;;;;;;19.97;73.88;99410.66;5033497;28;20058;-80
2023/09/18 03:48:37;;;;;;;10.52;2.30;;;;;;;19.91;74.36;99414.53;5049145;28;20032;-81
2023/09/18 03:51:04;;;;;;;10.57;2.42;;;;;;;19.85;74.42;99427.31;5049254;28;20031;-80
2023/09/18 03:53:29;;;;;;;10.27;2.38;;;;;;;19.82;74.47;99432.84;5062757;28;20035;-80
2023/09/18 03:55:55;;;;;;;10.67;2.63;;;;;;;19.84;74.34;99425.59;5063331;28;20407;-82
2023/09/18 03:58:20;;;;;;;13.30;2.50;;;;;;;19.84;74.46;99425.59;5049574;28;20025;-81
2023/09/18 04:00:45;;;;;;;12.03;2.93;;;;;;;19.84;74.59;99414.91;5049770;28;20029;-81
2023/09/18 04:03:11;;;;;;;10.13;3.07;;;;;;;19.85;74.48;99413.97;5048983;28;20282;-81
2023/09/18 04:05:36;;;;;;;9.17;2.83;;;;;;;19.81;74.47;99421.31;5049124;28;20110;-81
2023/09/18 04:08:02;;;;;;;12.63;2.93;;;;;;;19.78;74.55;99405.47;5049438;28;20096;-81
2023/09/18 04:10:27;;;;;;;11.10;3.03;;;;;;;19.76;74.52;99407.31;5056712;28;20021;-81
2023/09/18 04:12:53;;;;;;;14.43;3.37;;;;;;;19.72;74.39;99420.00;5069207;28;20044;-81
2023/09/18 04:15:19;;;;;;;8.77;2.43;;;;;;;19.72;74.42;99424.47;5069271;28;20027;-81
2023/09/18 04:17:44;;;;;;;13.48;3.10;;;;;;;19.74;74.39;99433.25;5068942;28;20025;-80
2023/09/18 04:20:11;;;;;;;11.73;3.50;;;;;;;19.78;74.76;99434.84;5069073;28;20492;-81
2023/09/18 04:22:43;;;;;;;12.05;3.42;;;;;;;19.78;74.38;99446.38;5068959;28;20032;-80
2023/09/18 04:25:08;;;;;;;13.32;3.40;;;;;;;19.74;74.22;99446.63;5072322;28;20380;-82
2023/09/18 04:27:33;;;;;;;12.03;2.97;;;;;;;19.67;74.80;99445.25;5053239;28;20037;-81
2023/09/18 04:30:00;;;;;;;9.73;3.20;;;;;;;19.62;74.82;99443.69;5053093;28;20543;-81
2023/09/18 04:32:27;;;;;;;15.07;3.45;;;;;;;19.57;74.79;99450.22;5069204;28;20059;-81
2023/09/18 04:34:54;;;;;;;9.40;3.20;;;;;;;19.55;74.80;99452.13;5072950;28;20102;-83
2023/09/18 04:37:19;;;;;;;10.90;2.97;;;;;;;19.55;74.75;99441.44;5072897;28;20037;-82
2023/09/18 04:39:44;;;;;;;10.10;2.90;;;;;;;19.51;74.76;99438.94;5072754;28;20017;-81
2023/09/18 04:42:10;;;;;;;9.70;2.93;;;;;;;19.48;74.82;99436.44;5074735;28;20124;-81
2023/09/18 04:44:35;;;;;;;11.50;3.05;;;;;;;19.46;74.79;99427.66;5072957;28;20032;-81
2023/09/18 04:47:00;;;;;;;10.20;2.93;;;;;;;19.45;75.27;99417.94;5072496;28;20500;-81
2023/09/18 04:49:27;;;;;;;8.23;2.80;;;;;;;19.47;74.88;99417.81;5073308;28;20031;-81
2023/09/18 04:51:53;;;;;;;10.43;2.83;;;;;;;19.46;74.80;99422.31;5072805;28;20429;-81
2023/09/18 04:54:19;;;;;;;10.50;3.00;;;;;;;19.41;74.88;99428.84;5072655;28;20123;-81
2023/09/18 04:56:45;;;;;;;10.18;3.03;;;;;;;19.36;75.15;99421.06;5085415;28;20055;-81
2023/09/18 04:59:10;;;;;;;10.53;2.87;;;;;;;19.36;75.23;99415.75;5092674;28;20036;-81
2023/09/18 05:01:36;;;;;;;10.25;2.90;;;;;;;19.37;74.78;99406.78;5092323;28;20031;-82
2023/09/18 05:04:01;;;;;;;12.20;3.60;;;;;;;19.39;74.77;99417.41;5092369;28;20032;-82
2023/09/18 05:06:27;;;;;;;11.20;3.10;;;;;;;19.39;74.70;99420.91;5092788;28;20020;-81
2023/09/18 05:08:54;;;;;;;11.53;3.07;;;;;;;19.41;74.75;99424.38;5092925;28;20047;-81
2023/09/18 05:11:19;;;;;;;8.75;2.70;;;;;;;19.42;74.76;99436.78;5077448;28;20107;-81
2023/09/18 05:13:44;;;;;;;12.68;3.08;;;;;;;19.42;74.45;99435.91;5072674;28;20111;-84
2023/09/18 05:16:10;;;;;;;9.23;2.90;;;;;;;19.42;74.45;99430.56;5072156;28;20119;-81
2023/09/18 05:18:36;;;;;;;11.07;3.13;;;;;;;19.43;74.41;99425.16;5071944;28;20036;-86
2023/09/18 05:21:04;;;;;;;10.80;2.85;;;;;;;19.43;74.47;99416.28;5071973;28;20020;-81
2023/09/18 05:23:30;;;;;;;10.57;2.70;;;;;;;19.41;74.36;99413.72;5071872;28;20443;-81
2023/09/18 05:25:55;;;;;;;10.10;2.80;;;;;;;19.41;74.55;99408.38;5072276;28;20028;-82
2023/09/18 05:28:21;;;;;;;14.27;3.00;;;;;;;19.40;74.79;99408.44;5071870;28;20040;-82
2023/09/18 05:30:46;;;;;;;11.90;2.70;;;;;;;19.40;75.00;99411.94;5066640;28;20057;-84
2023/09/18 05:33:12;;;;;;;8.88;2.50;;;;;;;19.41;74.87;99412.84;5051845;28;20041;-86
2023/09/18 05:35:42;;;;;;;8.50;2.90;;;;;;;19.45;74.59;99411.72;5051223;28;20033;-84
2023/09/18 05:38:09;;;;;;;12.05;3.42;;;;;;;19.49;74.68;99414.13;5053958;28;20511;-85
2023/09/18 05:40:35;;;;;;;10.50;2.72;;;;;;;19.51;74.49;99409.56;5051516;28;20094;-86
2023/09/18 05:43:01;;;;;;;12.03;2.97;;;;;;;19.54;74.45;99418.34;5053425;28;20036;-85
2023/09/18 05:45:27;;;;;;;12.43;3.05;;;;;;;19.57;74.79;99419.06;5068998;28;20059;-79
2023/09/18 05:48:03;;;;;;;11.98;3.42;;;;;;;19.59;74.65;99421.63;5072957;28;20444;-84
2023/09/18 05:50:32;;;;;;;11.90;3.27;;;;;;;19.58;74.91;99419.91;5055178;28;20024;-82
2023/09/18 05:53:03;;;;;;;9.95;3.13;;;;;;;19.56;74.62;99427.16;5056626;28;20491;-85
2023/09/18 05:55:30;;;;;;;14.02;3.30;;;;;;;19.57;74.52;99428.88;5061525;28;20611;-81
2023/09/18 05:57:57;;;;;;;13.98;3.30;;;;;;;19.60;74.87;99429.56;5071165;28;20060;-87
2023/09/18 06:00:23;;;;;;;13.05;3.60;;;;;;;19.63;74.56;99425.84;5071688;28;20033;-89
2023/09/18 06:02:50;;;;;;;24.93;5.13;;;;;;;19.67;74.55;99427.44;5071359;28;20040;-81
2023/09/18 06:05:16;;;;;;;25.65;5.70;;;;;;;19.64;75.01;99424.91;5071498;28;20033;-80
2023/09/18 06:07:41;;;;;;;20.27;5.07;;;;;;;19.64;75.11;99425.78;5071235;28;20568;-80
2023/09/18 06:10:07;;;;;;;22.93;5.23;;;;;;;19.70;75.04;99431.72;5047967;28;20268;-80
2023/09/18 06:12:33;;;;;;;21.95;5.90;;;;;;;19.74;74.63;99436.81;5051078;28;20499;-84
2023/09/18 06:14:58;;;;;;;23.83;4.70;;;;;;;19.79;74.95;99429.41;5051077;28;20041;-81
2023/09/18 06:17:24;;;;;;;23.57;4.97;;;;;;;19.85;74.82;99435.34;5050970;28;20028;-80
2023/09/18 06:19:49;;;;;;;19.43;5.13;;;;;;;19.90;74.68;99446.66;5050917;28;20404;-80
2023/09/18 06:22:15;;;;;;;22.38;4.82;;;;;;;19.97;74.69;99439.16;5050795;28;20071;-81
2023/09/18 06:24:40;;;;;;;14.93;4.30;;;;;;;20.02;74.77;99448.66;5050864;28;20044;-80
2023/09/18 06:27:06;;;;;;;22.23;5.20;;;;;;;20.06;74.88;99452.88;5050453;28;20021;-80
2023/09/18 06:29:32;;;;;;;18.17;5.70;;;;;;;20.13;74.65;99452.50;5050775;28;20025;-80
2023/09/18 06:31:58;;;;;;;23.60;5.43;;;;;;;20.20;75.10;99448.56;5050497;28;20057;-80
2023/09/18 06:34:23;;;;;;;23.50;5.73;;;;;;;20.24;74.78;99444.75;5052860;28;20539;-81
2023/09/18 06:36:49;;;;;;;28.13;6.10;;;;;;;20.28;74.84;99438.28;5050664;28;20033;-80
2023/09/18 06:39:15;;;;;;;27.83;6.30;;;;;;;20.32;74.51;99447.84;5050545;28;20031;-81
2023/09/18 06:41:40;;;;;;;27.37;6.50;;;;;;;20.35;74.58;99449.47;5059058;28;20261;-80
2023/09/18 06:44:06;;;;;;;28.17;7.50;;;;;;;20.35;75.21;99447.66;5070849;28;20142;-80
2023/09/18 06:46:32;;;;;;;36.87;7.83;;;;;;;20.37;74.90;99452.94;5070136;28;20052;-81
2023/09/18 06:48:59;;;;;;;32.35;7.25;;;;;;;20.39;75.06;99450.19;5046259;28;20468;-82
2023/09/18 06:51:27;;;;;;;26.45;6.93;;;;;;;20.37;75.65;99451.09;5050523;28;20033;-79
2023/09/18 06:53:53;;;;;;;34.28;8.60;;;;;;;20.36;75.79;99449.38;5050251;28;20111;-80
2023/09/18 06:56:19;;;;;;;38.03;8.53;;;;;;;20.35;75.73;99455.69;5059634;28;20028;-79
2023/09/18 06:58:44;;;;;;;32.53;9.48;;;;;;;20.39;76.19;99451.03;5070306;28;20031;-79
2023/09/18 07:01:10;;;;;;;40.77;9.17;;;;;;;20.43;76.61;99459.75;5070397;28;20036;-79
2023/09/18 07:03:36;;;;;;;39.70;9.90;;;;;;;20.46;76.30;99459.56;5070164;28;20034;-80
2023/09/18 07:06:04;;;;;;;44.00;10.18;;;;;;;20.53;76.76;99474.28;5070107;28;20020;-80
2023/09/18 07:08:30;;;;;;;44.65;10.55;;;;;;;20.60;76.51;99486.34;5070024;28;20036;-79
2023/09/18 07:10:55;;;;;;;44.17;10.18;;;;;;;20.67;76.16;99483.34;5058420;28;20492;-79
2023/09/18 07:13:20;;;;;;;39.10;11.40;;;;;;;20.70;76.73;99484.00;5049957;28;20029;-80
2023/09/18 07:15:47;;;;;;;47.20;11.97;;;;;;;20.70;77.01;99488.50;5064953;28;20040;-79
2023/09/18 07:18:14;;;;;;;44.30;11.18;;;;;;;20.76;76.69;99490.81;5067315;28;20561;-79
2023/09/18 07:20:45;;;;;;;40.10;11.73;;;;;;;20.79;77.28;99504.00;5069496;28;20029;-80
2023/09/18 07:23:11;;;;;;;41.97;11.90;;;;;;;20.85;76.90;99511.69;5068982;28;20099;-79
2023/09/18 07:25:38;;;;;;;41.80;11.57;;;;;;;20.90;76.80;99514.09;5047539;28;20120;-79
2023/09/18 07:28:05;;;;;;;45.08;11.35;;;;;;;20.97;76.88;99520.81;5050268;28;20078;-79
2023/09/18 07:30:31;;;;;;;44.87;11.40;;;;;;;21.03;76.68;99522.25;5051756;28;20067;-79
2023/09/18 07:32:57;;;;;;;54.58;13.32;;;;;;;21.08;77.24;99525.50;5049703;28;20501;-79
2023/09/18 07:35:23;;;;;;;41.60;12.33;;;;;;;;;;5049776;28;20087;-79
2023/09/18 07:37:49;;;;;;;38.38;11.98;;;;;;;21.14;77.11;99530.53;5057742;28;20033;-80
2023/09/18 07:40:15;;;;;;;38.27;12.00;;;;;;;21.20;77.03;99535.50;5069543;28;20044;-80
2023/09/18 07:42:41;;;;;;;51.63;14.23;;;;;;;21.26;76.92;99544.09;5069569;28;20054;-80
2023/09/18 07:45:06;;;;;;;46.77;12.97;;;;;;;21.28;76.97;99542.19;5069605;28;20585;-79
2023/09/18 07:47:32;;;;;;;50.70;14.63;;;;;;;21.31;77.26;99547.38;5069506;28;20103;-79
2023/09/18 07:49:57;;;;;;;50.73;14.23;;;;;;;21.32;77.43;99547.28;5055254;28;20413;-79
2023/09/18 07:52:23;;;;;;;42.53;12.83;;;;;;;21.34;77.10;99547.19;5049569;28;20253;-79
2023/09/18 07:54:48;;;;;;;65.33;14.27;;;;;;;21.34;77.63;99544.50;5049587;28;20102;-79
2023/09/18 07:57:13;;;;;;;45.70;13.50;;;;;;;21.35;77.55;99544.41;5066214;28;20025;-80
2023/09/18 07:59:39;;;;;;;48.97;13.77;;;;;;;21.41;77.65;99553.91;5068851;28;20052;-79
2023/09/18 08:02:05;;;;;;;48.77;13.33;;;;;;;21.44;77.53;99550.16;5069268;28;20024;-79
2023/09/18 08:04:32;;;;;;;54.33;13.93;;;;;;;21.47;77.85;99548.16;5050930;28;20029;-79
2023/09/18 08:06:57;;;;;;;44.08;14.50;;;;;;;21.50;77.54;99550.66;5069993;28;20059;-79
2023/09/18 08:09:23;;;;;;;52.13;14.37;;;;;;;21.56;77.58;99560.13;5069266;28;20500;-79
2023/09/18 08:11:49;;;;;;;62.95;15.25;;;;;;;21.60;77.70;99553.63;5050169;28;20029;-79
2023/09/18 08:14:15;;;;;;;39.45;14.00;;;;;;;21.59;77.43;99557.25;5049279;28;20033;-79
2023/09/18 08:16:40;;;;;;;40.03;13.33;;;;;;;21.59;77.60;99567.97;5049127;28;20044;-79
2023/09/18 08:19:06;;;;;;;49.73;15.47;;;;;;;21.62;77.89;99564.25;5049131;28;20021;-79
2023/09/18 08:21:32;;;;;;;43.60;15.05;;;;;;;21.59;78.04;99562.63;5048990;28;20021;-80
2023/09/18 08:23:58;;;;;;;52.90;15.07;;;;;;;21.59;78.41;99567.97;5049048;28;20114;-78
2023/09/18 08:26:23;;;;;;;50.33;15.37;;;;;;;21.59;78.68;99561.78;5051287;28;20590;-79
2023/09/18 08:28:48;;;;;;;41.40;14.97;;;;;;;21.62;78.81;99580.34;5049148;28;20084;-78
2023/09/18 08:31:16;;;;;;;30.03;13.00;;;;;;;21.69;78.30;99573.66;5049125;28;20455;-79
2023/09/18 08:33:42;;;;;;;38.28;12.00;;;;;;;21.74;78.32;99576.91;5035698;28;20191;-78
2023/09/18 08:36:07;;;;;;;35.22;12.65;;;;;;;21.84;77.65;99581.72;5069037;28;20574;-78
2023/09/18 08:38:33;;;;;;;37.03;13.57;;;;;;;21.86;77.86;99577.97;5068946;28;20503;-78
2023/09/18 08:40:59;;;;;;;40.63;13.83;;;;;;;21.91;77.77;99585.75;5068958;28;20032;-78
2023/09/18 08:43:24;;;;;;;40.78;14.52;;;;;;;22.02;77.93;99585.91;5068994;28;20107;-79
2023/09/18 08:45:55;;;;;;;38.20;14.20;;;;;;;22.08;78.49;99590.03;5069047;28;20032;-78
2023/09/18 08:48:21;;;;;;;35.23;12.57;;;;;;;22.21;77.76;99600.84;5067642;28;20274;-78
2023/09/18 08:50:51;;;;;;;38.80;13.60;;;;;;;22.40;77.56;99594.31;5049022;28;20553;-78
2023/09/18 08:53:16;;;;;;;46.35;14.98;;;;;;;22.73;76.86;99601.16;5049025;28;20607;-78
2023/09/18 08:55:42;;;;;;;36.83;15.40;;;;;;;23.02;76.55;99601.91;5053111;28;20228;-78
2023/09/18 08:58:08;;;;;;;42.20;14.48;;;;;;;23.18;75.61;99599.06;5069103;28;20027;-78
2023/09/18 09:00:36;;;;;;;45.73;13.87;;;;;;;23.17;75.11;99594.63;5068782;28;20033;-77
2023/09/18 09:03:04;;;;;;;43.58;12.10;;;;;;;23.21;74.69;99600.69;5050559;28;20496;-78
2023/09/18 09:05:30;;;;;;;36.38;12.20;;;;;;;23.39;74.88;99603.09;5068586;28;20028;-78
2023/09/18 09:07:56;;;;;;;32.88;10.32;;;;;;;23.60;74.42;99595.38;5069072;28;20426;-78
2023/09/18 09:10:21;;;;;;;36.50;10.73;;;;;;;23.73;73.94;99596.25;5061979;28;20021;-78
2023/09/18 09:12:57;;;;;;;32.00;10.37;;;;;;;23.89;73.74;99601.41;5052172;28;20036;-78
2023/09/18 09:15:32;;;;;;;34.95;10.13;;;;;;;24.12;73.03;99590.00;5052303;28;20033;-78
2023/09/18 09:18:06;;;;;;;34.95;10.50;;;;;;;24.34;72.58;99600.94;5047164;28;20037;-80
2023/09/18 09:20:32;;;;;;;32.80;9.55;;;;;;;24.57;71.99;99606.47;5052173;28;20500;-79
2023/09/18 09:23:02;;;;;;;31.50;10.40;;;;;;;24.77;70.38;99606.88;5054084;28;20381;-79
2023/09/18 09:25:31;;;;;;;33.87;9.07;;;;;;;24.84;70.44;99602.75;5051828;28;20100;-79
2023/09/18 09:27:57;;;;;;;28.00;8.52;;;;;;;24.93;69.92;99607.44;5052065;28;20021;-79
2023/09/18 09:30:28;;;;;;;22.17;7.95;;;;;;;25.05;69.76;99604.81;5060382;28;20032;-79
2023/09/18 09:32:58;;;;;;;34.22;10.00;;;;;;;25.26;69.39;99606.84;5072080;28;20025;-80
2023/09/18 09:35:28;;;;;;;27.40;9.38;;;;;;;25.43;68.97;99619.88;5071887;28;20158;-78
2023/09/18 09:37:57;;;;;;;29.30;9.40;;;;;;;25.46;68.85;99618.78;5071809;28;20107;-79
2023/09/18 09:40:24;;;;;;;32.78;10.07;;;;;;;25.41;68.23;99618.28;5071694;28;20024;-79
2023/09/18 09:43:00;;;;;;;22.90;8.20;;;;;;;25.43;68.04;99614.47;5071971;28;20082;-79
2023/09/18 09:45:31;;;;;;;29.60;7.82;;;;;;;25.59;67.91;99608.81;5071556;28;20055;-79
2023/09/18 09:47:57;;;;;;;21.52;7.65;;;;;;;25.79;68.03;99626.13;5071692;28;20534;-80
2023/09/18 09:50:25;;;;;;;20.27;7.70;;;;;;;25.96;66.55;99625.75;5054027;28;20025;-82
2023/09/18 09:52:53;;;;;;;22.23;6.93;;;;;;;26.13;66.46;99621.72;5033655;28;20484;-79
2023/09/18 09:55:38;;;;;;;18.50;6.60;;;;;;;26.21;65.63;99628.25;5052368;28;20029;-80
2023/09/18 09:58:05;;;;;;;20.20;6.40;;;;;;;26.46;65.24;99628.13;5071533;28;20063;-79
2023/09/18 10:00:45;;;;;;;17.55;6.03;;;;;;;26.64;65.02;99633.88;5071858;28;20121;-79
2023/09/18 10:03:12;;;;;;;21.03;5.90;;;;;;;26.82;64.14;99625.25;5071291;28;20103;-79
2023/09/18 10:05:42;;;;;;;15.82;6.20;;;;;;;26.96;63.95;99635.75;5071266;28;20024;-79
2023/09/18 10:08:14;;;;;;;14.77;6.15;;;;;;;27.08;63.34;99629.34;5071471;28;20025;-79
2023/09/18 10:10:45;;;;;;;16.55;6.20;;;;;;;27.17;61.40;99637.66;5043914;28;20013;-79
2023/09/18 10:13:18;;;;;;;14.68;5.68;;;;;;;27.21;62.01;99642.69;5051091;28;20567;-79
2023/09/18 10:15:44;;;;;;;18.23;5.87;;;;;;;27.28;61.79;99650.28;5051097;28;20411;-80
2023/09/18 10:18:30;;;;;;;12.80;5.43;;;;;;;27.26;62.22;99642.31;5052792;28;20104;-80
2023/09/18 10:21:34;;;;;;;14.93;5.47;;;;;;;27.44;61.50;99650.69;5033041;28;20162;-80
2023/09/18 10:24:09;;;;;;;14.80;4.97;;;;;;;27.62;60.23;99653.69;5050707;28;20025;-80
2023/09/18 10:26:46;;;;;;;11.10;4.15;;;;;;;27.69;58.83;99654.03;5058496;28;20040;-81
2023/09/18 10:29:14;;;;;;;12.63;5.27;;;;;;;27.80;57.99;99653.94;5070824;28;20555;-81
2023/09/18 10:31:41;;;;;;;13.13;5.28;;;;;;;27.88;58.42;99657.84;5070598;28;20192;-80
2023/09/18 10:34:07;;;;;;;12.75;5.07;;;;;;;28.00;58.40;99645.94;5071038;28;20029;-80
2023/09/18 10:36:35;;;;;;;11.07;4.63;;;;;;;28.15;58.01;99648.31;5070660;28;20064;-82
2023/09/18 10:39:00;;;;;;;13.68;4.78;;;;;;;28.32;57.71;99653.09;5070403;28;20028;-80
2023/09/18 10:41:26;;;;;;;11.50;4.90;;;;;;;28.36;57.34;99648.28;5070618;28;20438;-82
2023/09/18 10:43:53;;;;;;;11.83;4.90;;;;;;;28.35;56.70;99652.84;5070642;28;20404;-83
2023/09/18 10:46:20;;;;;;;13.90;4.73;;;;;;;28.48;56.29;99646.31;5070791;28;20575;-81
2023/09/18 10:48:46;;;;;;;12.63;4.57;;;;;;;28.62;54.71;99651.38;5065857;28;20107;-80
2023/09/18 10:51:13;;;;;;;12.23;4.22;;;;;;;28.73;53.76;99646.81;5050637;28;20025;-80
2023/09/18 10:53:39;;;;;;;12.40;4.10;;;;;;;28.88;53.04;99650.88;5050229;28;20071;-80
2023/09/18 10:56:05;;;;;;;10.47;4.17;;;;;;;28.92;52.23;99651.44;5057749;28;20032;-80
2023/09/18 10:58:30;;;;;;;12.65;3.83;;;;;;;29.02;51.88;99651.44;5070203;28;20055;-81
2023/09/18 11:00:57;;;;;;;10.97;4.10;;;;;;;29.16;51.11;99648.34;5070215;28;20400;-80
2023/09/18 11:03:23;;;;;;;10.50;4.05;;;;;;;29.27;51.89;99651.88;5070367;28;20116;-80
2023/09/18 11:06:02;;;;;;;13.43;4.05;;;;;;;29.32;50.29;99655.06;5070664;28;20058;-81
2023/09/18 11:08:33;;;;;;;9.50;3.88;;;;;;;29.44;50.59;99650.38;5070385;28;20024;-81
2023/09/18 11:11:20;;;;;;;12.30;3.57;;;;;;;29.41;50.05;99647.91;5058133;28;20025;-82
2023/09/18 11:13:54;;;;;;;13.63;3.83;;;;;;;29.57;49.81;99639.22;5050136;28;20040;-81
2023/09/18 11:16:28;;;;;;;10.50;3.50;;;;;;;29.62;49.21;99636.91;5051909;28;20366;-82
2023/09/18 11:19:07;;;;;;;11.00;3.90;;;;;;;29.65;49.34;99642.88;5049890;28;20024;-81
2023/09/18 11:21:33;;;;;;;10.60;3.70;;;;;;;29.86;49.03;99643.72;5049981;28;20070;-83
2023/09/18 11:23:59;;;;;;;9.23;3.77;;;;;;;29.96;48.95;99644.53;5049577;28;20024;-82
2023/09/18 11:26:28;;;;;;;11.20;3.60;;;;;;;30.03;48.18;99642.13;5059543;28;20025;-81